Time,TemperatureF,DewpointF,PressureIn,WindDirection,WindDirectionDegrees,WindSpeedMPH,WindSpeedGustMPH,Humidity,HourlyPrecipIn,Conditions,Clouds,dailyrainin,SoftwareType,DateUTC
2013-04-04 00:00:00,67.0,65.2,30.02,NNE,23,0.0,1.0,94,0.01,,---,0.03,VWS V14.00,2013-04-04 04:00:00,
2013-04-04 00:01:00,67.0,65.5,30.02,NNE,23,0.0,1.0,95,0.01,,---,0.03,VWS V14.00,2013-04-04 04:01:00,
2013-04-04 00:02:00,67.0,65.5,30.02,NNE,22,0.0,0.0,95,0.01,,---,0.00,VWS V14.00,2013-04-04 04:02:00,
2013-04-04 00:08:00,67.0,65.5,30.02,NNE,22,0.0,0.0,95,0.01,,---,0.00,VWS V14.00,2013-04-04 04:08:00,
2013-04-04 00:13:00,67.0,65.5,30.02,NNE,23,0.0,0.0,95,0.01,,---,0.00,VWS V14.00,2013-04-04 04:13:00,
2013-04-04 00:18:00,66.9,65.4,30.02,NNE,23,0.0,0.0,95,0.01,,---,0.00,VWS V14.00,2013-04-04 04:18:00,
2013-04-04 00:23:00,66.9,65.4,30.03,NNE,22,0.0,0.0,95,0.01,,---,0.00,VWS V14.00,2013-04-04 04:23:00,
2013-04-04 00:28:00,67.0,65.5,30.01,NNE,23,0.0,0.0,95,0.01,,---,0.00,VWS V14.00,2013-04-04 04:28:00,
2013-04-04 00:30:00,67.1,65.6,30.01,NNE,23,0.0,0.0,95,0.01,,---,0.00,VWS V14.00,2013-04-04 04:30:00,
2013-04-04 00:34:00,67.1,65.6,30.01,NNE,23,0.0,0.0,95,0.01,,---,0.00,VWS V14.00,2013-04-04 04:34:00,
2013-04-04 00:39:00,67.2,65.7,30.00,NNE,23,0.0,0.0,95,0.01,,---,0.00,VWS V14.00,2013-04-04 04:39:00,
2013-04-04 00:44:00,67.3,65.8,30.01,NNE,22,0.0,1.0,95,0.01,,---,0.00,VWS V14.00,2013-04-04 04:44:00,
2013-04-04 00:49:00,67.4,65.9,30.01,NNE,23,0.0,1.0,95,0.01,,---,0.00,VWS V14.00,2013-04-04 04:49:00,
2013-04-04 00:54:00,67.5,66.0,30.01,NNE,22,0.0,1.0,95,0.01,,---,0.00,VWS V14.00,2013-04-04 04:54:00,
2013-04-04 00:59:00,67.6,66.1,30.01,NNE,23,0.0,1.0,95,0.01,,---,0.00,VWS V14.00,2013-04-04 04:59:00,
2013-04-04 01:00:00,67.6,66.1,30.01,NNE,22,0.0,1.0,95,0.01,,---,0.00,VWS V14.00,2013-04-04 05:00:00,
2013-04-04 01:05:00,67.7,66.2,30.01,NNE,22,0.0,1.0,95,0.00,,---,0.00,VWS V14.00,2013-04-04 05:05:00,
2013-04-04 01:10:00,67.8,66.3,30.00,NNE,22,0.0,1.0,95,0.00,,---,0.00,VWS V14.00,2013-04-04 05:10:00,
2013-04-04 01:15:00,68.0,66.5,29.99,NNE,18,1.0,3.0,95,0.00,,---,0.00,VWS V14.00,2013-04-04 05:15:00,
2013-04-04 01:20:00,68.0,66.5,29.99,NNE,18,0.0,3.0,95,0.00,,---,0.00,VWS V14.00,2013-04-04 05:20:00,
2013-04-04 01:26:00,68.2,66.7,29.99,NNW,327,0.0,3.0,95,0.00,,---,0.00,VWS V14.00,2013-04-04 05:26:00,
2013-04-04 01:30:00,68.4,66.9,29.99,NW,325,0.0,3.0,95,0.00,,---,0.00,VWS V14.00,2013-04-04 05:30:00,
2013-04-04 01:32:00,68.4,66.9,29.99,NW,325,0.0,0.0,95,0.00,,---,0.00,VWS V14.00,2013-04-04 05:32:00,
2013-04-04 01:37:00,68.5,67.0,29.99,NW,325,0.0,0.0,95,0.00,,---,0.00,VWS V14.00,2013-04-04 05:37:00,
2013-04-04 01:42:00,68.7,67.2,30.00,NW,325,0.0,0.0,95,0.00,,---,0.00,VWS V14.00,2013-04-04 05:42:00,
2013-04-04 01:48:00,68.8,67.3,30.00,NW,325,0.0,0.0,95,0.00,,---,0.00,VWS V14.00,2013-04-04 05:48:00,
2013-04-04 01:53:00,69.0,67.8,30.00,NW,325,0.0,0.0,96,0.00,,---,0.00,VWS V14.00,2013-04-04 05:53:00,
2013-04-04 01:58:00,69.0,67.8,30.00,NW,325,0.0,0.0,96,0.00,,---,0.00,VWS V14.00,2013-04-04 05:58:00,
2013-04-04 02:00:00,69.1,67.9,30.00,NW,325,0.0,0.0,96,0.00,,---,0.00,VWS V14.00,2013-04-04 06:00:00,
2013-04-04 02:03:00,69.1,67.9,30.00,NW,325,0.0,0.0,96,0.00,,---,0.00,VWS V14.00,2013-04-04 06:03:00,
2013-04-04 02:09:00,69.2,68.0,29.99,NW,325,0.0,0.0,96,0.00,,---,0.00,VWS V14.00,2013-04-04 06:09:00,
2013-04-04 02:14:00,69.2,68.0,29.99,NW,325,0.0,0.0,96,0.00,,---,0.00,VWS V14.00,2013-04-04 06:14:00,
2013-04-04 02:20:00,69.3,68.1,29.99,NW,325,0.0,0.0,96,0.00,,---,0.00,VWS V14.00,2013-04-04 06:20:00,
2013-04-04 02:25:00,69.3,68.1,29.99,NW,325,0.0,0.0,96,0.00,,---,0.00,VWS V14.00,2013-04-04 06:25:00,
2013-04-04 02:30:00,69.2,68.0,29.99,NW,325,0.0,0.0,96,0.00,,---,0.00,VWS V14.00,2013-04-04 06:30:00,
2013-04-04 02:36:00,69.2,68.0,29.99,NW,325,0.0,0.0,96,0.00,,---,0.00,VWS V14.00,2013-04-04 06:36:00,
2013-04-04 02:42:00,69.2,68.0,29.99,NW,325,0.0,0.0,96,0.00,,---,0.00,VWS V14.00,2013-04-04 06:42:00,
2013-04-04 02:47:00,69.3,68.1,29.98,NW,325,0.0,0.0,96,0.00,,---,0.00,VWS V14.00,2013-04-04 06:47:00,
2013-04-04 02:52:00,69.2,68.0,29.98,NW,325,0.0,0.0,96,0.00,,---,0.00,VWS V14.00,2013-04-04 06:52:00,
2013-04-04 02:57:00,69.2,68.0,29.98,NW,325,0.0,0.0,96,0.00,,---,0.00,VWS V14.00,2013-04-04 06:57:00,
2013-04-04 03:00:00,69.2,68.0,29.98,NW,325,0.0,0.0,96,0.00,,---,0.00,VWS V14.00,2013-04-04 07:00:00,
2013-04-04 03:02:00,69.2,68.0,29.98,NW,325,0.0,0.0,96,0.00,,---,0.00,VWS V14.00,2013-04-04 07:02:00,
2013-04-04 03:08:00,69.2,68.0,29.98,NW,325,0.0,0.0,96,0.00,,---,0.00,VWS V14.00,2013-04-04 07:08:00,
2013-04-04 03:13:00,69.3,68.1,29.98,NW,325,0.0,0.0,96,0.00,,---,0.00,VWS V14.00,2013-04-04 07:13:00,
2013-04-04 03:18:00,69.3,68.1,29.98,NW,325,0.0,0.0,96,0.00,,---,0.00,VWS V14.00,2013-04-04 07:18:00,
2013-04-04 03:23:00,69.3,68.1,29.98,NW,325,0.0,0.0,96,0.00,,---,0.00,VWS V14.00,2013-04-04 07:23:00,
2013-04-04 03:29:00,69.3,68.1,29.97,NW,325,0.0,0.0,96,0.00,,---,0.00,VWS V14.00,2013-04-04 07:29:00,
2013-04-04 03:30:00,69.4,68.2,29.97,NW,325,0.0,0.0,96,0.00,,---,0.00,VWS V14.00,2013-04-04 07:30:00,
2013-04-04 03:34:00,69.4,68.2,29.97,NW,325,0.0,0.0,96,0.00,,---,0.00,VWS V14.00,2013-04-04 07:34:00,
2013-04-04 03:39:00,69.3,68.1,29.97,NW,325,0.0,0.0,96,0.00,,---,0.00,VWS V14.00,2013-04-04 07:39:00,
2013-04-04 03:44:00,69.3,68.1,29.98,NW,325,0.0,0.0,96,0.00,,---,0.00,VWS V14.00,2013-04-04 07:44:00,
2013-04-04 03:49:00,69.2,68.0,29.97,NW,325,0.0,0.0,96,0.00,,---,0.00,VWS V14.00,2013-04-04 07:49:00,
2013-04-04 03:54:00,69.2,68.0,29.97,NW,325,0.0,0.0,96,0.00,,---,0.00,VWS V14.00,2013-04-04 07:54:00,
2013-04-04 03:59:00,69.1,67.9,29.97,NW,325,0.0,0.0,96,0.00,,---,0.00,VWS V14.00,2013-04-04 07:59:00,
2013-04-04 04:00:00,69.1,67.9,29.96,NW,325,0.0,1.0,96,0.00,,---,0.00,VWS V14.00,2013-04-04 08:00:00,
2013-04-04 04:05:00,69.1,67.9,29.96,NW,325,0.0,0.0,96,0.00,,---,0.00,VWS V14.00,2013-04-04 08:05:00,
2013-04-04 04:11:00,69.1,67.9,29.96,NW,325,0.0,0.0,96,0.00,,---,0.00,VWS V14.00,2013-04-04 08:11:00,
2013-04-04 04:16:00,69.2,68.0,29.95,South,178,0.0,4.0,96,0.00,,---,0.00,VWS V14.00,2013-04-04 08:16:00,
2013-04-04 04:22:00,69.1,67.9,29.94,South,172,5.0,5.0,96,0.00,,---,0.00,VWS V14.00,2013-04-04 08:22:00,
2013-04-04 04:27:00,69.1,67.9,29.94,South,180,0.0,5.0,96,0.00,,---,0.00,VWS V14.00,2013-04-04 08:27:00,
2013-04-04 04:30:00,69.0,67.8,29.94,South,180,0.0,5.0,96,0.00,,---,0.00,VWS V14.00,2013-04-04 08:30:00,
2013-04-04 04:32:00,69.0,67.8,29.94,South,179,0.0,0.0,96,0.00,,---,0.00,VWS V14.00,2013-04-04 08:32:00,
2013-04-04 04:38:00,69.0,67.8,29.94,SSW,203,0.0,0.0,96,0.00,,---,0.00,VWS V14.00,2013-04-04 08:38:00,
2013-04-04 04:43:00,69.0,67.8,29.94,SE,142,0.0,7.0,96,0.00,,---,0.00,VWS V14.00,2013-04-04 08:43:00,
2013-04-04 04:48:00,69.0,67.8,29.94,ESE,119,0.0,7.0,96,0.00,,---,0.00,VWS V14.00,2013-04-04 08:48:00,
2013-04-04 04:54:00,69.0,67.8,29.94,SSE,164,3.0,7.0,96,0.00,,---,0.00,VWS V14.00,2013-04-04 08:54:00,
2013-04-04 04:59:00,69.1,67.9,29.94,SE,124,0.0,7.0,96,0.00,,---,0.00,VWS V14.00,2013-04-04 08:59:00,
2013-04-04 05:00:00,69.0,67.8,29.93,SE,125,0.0,7.0,96,0.00,,---,0.00,VWS V14.00,2013-04-04 09:00:00,
2013-04-04 05:04:00,69.1,67.9,29.92,ENE,65,0.0,4.0,96,0.00,,---,0.00,VWS V14.00,2013-04-04 09:04:00,
2013-04-04 05:09:00,69.1,67.9,29.89,SSE,155,0.0,5.0,96,0.00,,---,0.00,VWS V14.00,2013-04-04 09:09:00,
2013-04-04 05:15:00,69.0,67.8,29.89,SE,146,0.0,11.0,96,0.00,,---,0.00,VWS V14.00,2013-04-04 09:15:00,
2013-04-04 05:20:00,69.1,67.9,29.89,SW,215,0.0,14.0,96,0.01,,---,0.01,VWS V14.00,2013-04-04 09:20:00,
2013-04-04 05:25:00,69.2,68.0,29.93,NNW,343,2.0,14.0,96,0.01,,---,0.01,VWS V14.00,2013-04-04 09:25:00,
2013-04-04 05:30:00,69.3,68.1,29.96,WSW,249,0.0,14.0,96,0.01,,---,0.01,VWS V14.00,2013-04-04 09:30:00,
2013-04-04 05:36:00,69.3,68.1,29.97,WSW,252,0.0,0.0,96,0.01,,---,0.01,VWS V14.00,2013-04-04 09:36:00,
2013-04-04 05:41:00,69.4,68.2,29.97,SSW,206,0.0,1.0,96,0.01,,---,0.01,VWS V14.00,2013-04-04 09:41:00,
2013-04-04 05:46:00,69.4,68.2,29.95,SSW,206,0.0,1.0,96,0.01,,---,0.01,VWS V14.00,2013-04-04 09:46:00,
2013-04-04 05:52:00,69.4,68.2,29.95,South,190,0.0,1.0,96,0.01,,---,0.01,VWS V14.00,2013-04-04 09:52:00,
2013-04-04 05:57:00,69.4,68.2,29.95,SW,235,4.0,6.0,96,0.01,,---,0.01,VWS V14.00,2013-04-04 09:57:00,
2013-04-04 06:00:00,69.5,68.3,29.96,SSW,195,0.0,7.0,96,0.01,,---,0.01,VWS V14.00,2013-04-04 10:00:00,
2013-04-04 06:02:00,69.5,68.3,29.96,South,174,0.0,0.0,96,0.01,,---,0.01,VWS V14.00,2013-04-04 10:02:00,
2013-04-04 06:07:00,69.5,68.3,29.97,SSE,163,0.0,5.0,96,0.01,,---,0.01,VWS V14.00,2013-04-04 10:07:00,
2013-04-04 06:13:00,69.6,68.4,29.96,SSW,210,0.0,5.0,96,0.01,,---,0.01,VWS V14.00,2013-04-04 10:13:00,
2013-04-04 06:18:00,69.7,68.5,29.96,SW,229,0.0,5.0,96,0.01,,---,0.01,VWS V14.00,2013-04-04 10:18:00,
2013-04-04 06:23:00,69.7,68.5,29.95,SSW,197,0.0,7.0,96,0.01,,---,0.01,VWS V14.00,2013-04-04 10:23:00,
2013-04-04 06:29:00,69.7,68.5,29.95,South,181,0.0,7.0,96,0.01,,---,0.01,VWS V14.00,2013-04-04 10:29:00,
2013-04-04 06:30:00,69.7,68.5,29.95,SE,145,0.0,7.0,96,0.01,,---,0.01,VWS V14.00,2013-04-04 10:30:00,
2013-04-04 06:34:00,69.7,68.5,29.95,WSW,258,0.0,4.0,96,0.00,,---,0.01,VWS V14.00,2013-04-04 10:34:00,
2013-04-04 06:40:00,69.6,68.4,29.95,SSW,192,0.0,12.0,96,0.00,,---,0.01,VWS V14.00,2013-04-04 10:40:00,
2013-04-04 06:45:00,69.6,68.4,29.92,SE,125,0.0,12.0,96,0.00,,---,0.01,VWS V14.00,2013-04-04 10:45:00,
2013-04-04 06:50:00,69.5,68.0,29.92,SSE,157,2.0,12.0,95,0.00,,---,0.01,VWS V14.00,2013-04-04 10:50:00,
2013-04-04 06:55:00,69.5,68.0,29.93,SSW,198,3.0,12.0,95,0.00,,---,0.01,VWS V14.00,2013-04-04 10:55:00,
2013-04-04 07:00:00,69.5,68.0,29.93,West,265,0.0,14.0,95,0.00,,---,0.01,VWS V14.00,2013-04-04 11:00:00,
2013-04-04 07:01:00,69.5,68.0,29.93,West,265,0.0,14.0,95,0.00,,---,0.01,VWS V14.00,2013-04-04 11:01:00,
2013-04-04 07:07:00,69.4,67.9,29.93,SW,221,1.0,9.0,95,0.00,,---,0.01,VWS V14.00,2013-04-04 11:07:00,
2013-04-04 07:12:00,69.4,67.6,29.91,ENE,66,1.0,12.0,94,0.00,,---,0.01,VWS V14.00,2013-04-04 11:12:00,
2013-04-04 07:17:00,69.3,67.5,29.90,South,184,0.0,12.0,94,0.00,,---,0.01,VWS V14.00,2013-04-04 11:17:00,
2013-04-04 07:22:00,69.3,67.5,29.91,West,263,0.0,12.0,94,0.00,,---,0.01,VWS V14.00,2013-04-04 11:22:00,
2013-04-04 07:28:00,69.3,67.5,29.92,South,190,0.0,16.0,94,0.00,,---,0.01,VWS V14.00,2013-04-04 11:28:00,
2013-04-04 07:30:00,69.3,67.5,29.92,South,180,4.0,16.0,94,0.00,,---,0.01,VWS V14.00,2013-04-04 11:30:00,
2013-04-04 07:33:00,69.3,67.5,29.92,SW,214,5.0,5.0,94,0.00,,---,0.01,VWS V14.00,2013-04-04 11:33:00,
2013-04-04 07:38:00,69.3,67.5,29.91,South,191,5.0,13.0,94,0.00,,---,0.01,VWS V14.00,2013-04-04 11:38:00,
2013-04-04 07:44:00,69.3,67.5,29.91,WSW,238,4.0,13.0,94,0.00,,---,0.01,VWS V14.00,2013-04-04 11:44:00,
2013-04-04 07:50:00,69.2,67.4,29.91,SSW,203,3.0,13.0,94,0.00,,---,0.01,VWS V14.00,2013-04-04 11:50:00,
2013-04-04 07:55:00,69.2,67.4,29.90,South,183,0.0,13.0,94,0.00,,---,0.01,VWS V14.00,2013-04-04 11:55:00,
2013-04-04 08:00:00,69.2,67.1,29.91,SSW,213,0.0,13.0,93,0.00,,---,0.01,VWS V14.00,2013-04-04 12:00:00,
2013-04-04 08:01:00,69.2,67.4,29.91,South,172,3.0,13.0,94,0.00,,---,0.01,VWS V14.00,2013-04-04 12:01:00,
2013-04-04 08:06:00,69.2,67.1,29.91,WSW,239,0.0,9.0,93,0.00,,---,0.01,VWS V14.00,2013-04-04 12:06:00,
2013-04-04 08:11:00,69.2,67.1,29.90,WSW,242,0.0,12.0,93,0.00,,---,0.01,VWS V14.00,2013-04-04 12:11:00,
2013-04-04 08:17:00,69.4,67.3,29.91,SSW,202,0.0,14.0,93,0.00,,---,0.01,VWS V14.00,2013-04-04 12:17:00,
2013-04-04 08:22:00,69.5,67.1,29.91,SW,236,0.0,14.0,92,0.00,,---,0.01,VWS V14.00,2013-04-04 12:22:00,
2013-04-04 08:27:00,69.6,67.2,29.91,South,180,1.0,14.0,92,0.00,,---,0.01,VWS V14.00,2013-04-04 12:27:00,
2013-04-04 08:30:00,69.7,67.3,29.92,SW,221,0.0,14.0,92,0.00,,---,0.01,VWS V14.00,2013-04-04 12:30:00,
2013-04-04 08:32:00,69.8,67.4,29.92,SW,226,0.0,0.0,92,0.00,,---,0.01,VWS V14.00,2013-04-04 12:32:00,
2013-04-04 08:38:00,69.9,67.5,29.95,West,270,0.0,4.0,92,0.00,,---,0.01,VWS V14.00,2013-04-04 12:38:00,
2013-04-04 08:43:00,70.1,67.4,29.96,NNW,339,0.0,6.0,91,0.00,,---,0.01,VWS V14.00,2013-04-04 12:43:00,
2013-04-04 08:48:00,70.1,67.4,29.96,NNE,14,0.0,6.0,91,0.00,,---,0.01,VWS V14.00,2013-04-04 12:48:00,
2013-04-04 08:53:00,70.0,67.3,29.97,NNW,331,0.0,6.0,91,0.00,,---,0.01,VWS V14.00,2013-04-04 12:53:00,
2013-04-04 08:59:00,70.1,67.4,29.97,NNW,329,0.0,6.0,91,0.00,,---,0.01,VWS V14.00,2013-04-04 12:59:00,
2013-04-04 09:00:00,70.1,67.4,29.97,North,349,0.0,6.0,91,0.00,,---,0.01,VWS V14.00,2013-04-04 13:00:00,
2013-04-04 09:04:00,70.2,67.4,29.97,South,173,0.0,0.0,91,0.00,,---,0.01,VWS V14.00,2013-04-04 13:04:00,
2013-04-04 09:09:00,70.3,67.6,29.97,WSW,245,0.0,4.0,91,0.00,,---,0.01,VWS V14.00,2013-04-04 13:09:00,
2013-04-04 09:14:00,70.4,67.3,29.97,WNW,287,0.0,4.0,90,0.00,,---,0.01,VWS V14.00,2013-04-04 13:14:00,
2013-04-04 09:20:00,70.4,67.3,29.97,North,360,0.0,4.0,90,0.00,,---,0.01,VWS V14.00,2013-04-04 13:20:00,
2013-04-04 09:25:00,70.6,67.5,29.98,WNW,288,0.0,4.0,90,0.00,,---,0.01,VWS V14.00,2013-04-04 13:25:00,
2013-04-04 09:30:00,70.7,67.6,29.99,SW,222,0.0,4.0,90,0.00,,---,0.01,VWS V14.00,2013-04-04 13:30:00,
2013-04-04 09:36:00,70.8,67.4,29.99,WSW,237,0.0,0.0,89,0.00,,---,0.01,VWS V14.00,2013-04-04 13:36:00,
2013-04-04 09:41:00,70.8,67.4,29.99,WSW,250,0.0,2.0,89,0.00,,---,0.01,VWS V14.00,2013-04-04 13:41:00,
2013-04-04 09:46:00,70.7,67.3,29.98,SW,229,0.0,2.0,89,0.00,,---,0.01,VWS V14.00,2013-04-04 13:46:00,
2013-04-04 09:51:00,70.7,67.3,29.98,SSW,209,0.0,2.0,89,0.28,,---,0.29,VWS V14.00,2013-04-04 13:51:00,
2013-04-04 09:57:00,70.7,67.3,29.98,SSW,210,0.0,2.0,89,0.28,,---,0.29,VWS V14.00,2013-04-04 13:57:00,
2013-04-04 10:00:00,70.8,67.4,29.98,SSW,202,0.0,2.0,89,0.28,,---,0.29,VWS V14.00,2013-04-04 14:00:00,
2013-04-04 10:02:00,70.8,67.4,29.98,SSW,196,0.0,0.0,89,0.28,,---,0.29,VWS V14.00,2013-04-04 14:02:00,
2013-04-04 10:07:00,70.9,67.5,29.98,SSW,196,0.0,1.0,89,0.28,,---,0.29,VWS V14.00,2013-04-04 14:07:00,
2013-04-04 10:12:00,71.0,67.6,29.98,WSW,246,0.0,3.0,89,0.28,,---,0.29,VWS V14.00,2013-04-04 14:12:00,
2013-04-04 10:17:00,71.1,67.7,29.99,WSW,252,0.0,3.0,89,0.28,,---,0.29,VWS V14.00,2013-04-04 14:17:00,
2013-04-04 10:23:00,71.3,67.9,29.98,South,184,0.0,3.0,89,0.28,,---,0.29,VWS V14.00,2013-04-04 14:23:00,
2013-04-04 10:28:00,71.4,67.7,29.97,South,186,0.0,4.0,88,0.28,,---,0.29,VWS V14.00,2013-04-04 14:28:00,
2013-04-04 10:30:00,71.5,67.8,29.97,South,187,0.0,4.0,88,0.28,,---,0.29,VWS V14.00,2013-04-04 14:30:00,
2013-04-04 10:34:00,71.7,67.6,29.98,SSW,196,0.0,3.0,87,0.28,,---,0.29,VWS V14.00,2013-04-04 14:34:00,
2013-04-04 10:40:00,71.9,67.8,29.98,South,187,0.0,3.0,87,0.28,,---,0.29,VWS V14.00,2013-04-04 14:40:00,
2013-04-04 10:45:00,72.1,68.0,29.98,SW,234,0.0,3.0,87,0.28,,---,0.29,VWS V14.00,2013-04-04 14:45:00,
2013-04-04 10:50:00,72.2,67.8,29.98,SSW,208,1.0,6.0,86,0.28,,---,0.29,VWS V14.00,2013-04-04 14:50:00,
2013-04-04 10:56:00,72.4,68.0,29.99,SSW,205,0.0,6.0,86,0.28,,---,0.29,VWS V14.00,2013-04-04 14:56:00,
2013-04-04 11:00:00,72.6,68.2,29.99,SSE,163,0.0,6.0,86,0.28,,---,0.29,VWS V14.00,2013-04-04 15:00:00,
2013-04-04 11:01:00,72.6,68.2,29.99,SSE,163,0.0,6.0,86,0.28,,---,0.29,VWS V14.00,2013-04-04 15:01:00,
2013-04-04 11:07:00,72.8,68.0,30.00,SW,232,0.0,4.0,85,0.00,,---,0.29,VWS V14.00,2013-04-04 15:07:00,
2013-04-04 11:13:00,73.0,68.6,29.99,SW,215,0.0,4.0,86,0.00,,---,0.29,VWS V14.00,2013-04-04 15:13:00,
2013-04-04 11:18:00,73.1,68.7,29.99,SW,236,0.0,4.0,86,0.00,,---,0.29,VWS V14.00,2013-04-04 15:18:00,
2013-04-04 11:23:00,73.0,68.2,29.99,SW,219,0.0,6.0,85,0.00,,---,0.29,VWS V14.00,2013-04-04 15:23:00,
2013-04-04 11:28:00,73.0,68.2,29.98,WSW,251,0.0,6.0,85,0.00,,---,0.29,VWS V14.00,2013-04-04 15:28:00,
2013-04-04 11:30:00,73.1,68.3,29.99,SW,236,0.0,6.0,85,0.00,,---,0.29,VWS V14.00,2013-04-04 15:30:00,
2013-04-04 11:33:00,73.2,68.1,29.99,South,187,0.0,5.0,84,0.00,,---,0.29,VWS V14.00,2013-04-04 15:33:00,
2013-04-04 11:39:00,73.3,68.2,30.00,SW,215,0.0,5.0,84,0.00,,---,0.29,VWS V14.00,2013-04-04 15:39:00,
2013-04-04 11:44:00,73.4,68.3,30.00,WSW,241,1.0,5.0,84,0.00,,---,0.29,VWS V14.00,2013-04-04 15:44:00,
2013-04-04 11:49:00,73.5,68.4,29.99,WSW,250,0.0,7.0,84,0.00,,---,0.29,VWS V14.00,2013-04-04 15:49:00,
2013-04-04 11:54:00,73.5,68.0,30.00,SSW,194,3.0,9.0,83,0.00,,---,0.29,VWS V14.00,2013-04-04 15:54:00,
2013-04-04 12:00:00,73.5,68.4,30.00,WSW,241,0.0,9.0,84,0.00,,---,0.29,VWS V14.00,2013-04-04 16:00:00,
2013-04-04 12:05:00,73.5,68.4,30.00,SW,217,0.0,6.0,84,0.00,,---,0.29,VWS V14.00,2013-04-04 16:05:00,
2013-04-04 12:11:00,73.6,68.1,30.00,SW,217,0.0,6.0,83,0.00,,---,0.29,VWS V14.00,2013-04-04 16:11:00,
2013-04-04 12:16:00,73.6,68.1,30.00,SW,229,0.0,6.0,83,0.00,,---,0.29,VWS V14.00,2013-04-04 16:16:00,
2013-04-04 12:22:00,73.4,67.2,30.00,SW,226,0.0,7.0,81,0.00,,---,0.29,VWS V14.00,2013-04-04 16:22:00,
2013-04-04 12:27:00,73.4,67.6,30.00,SSW,209,0.0,7.0,82,0.00,,---,0.29,VWS V14.00,2013-04-04 16:27:00,
2013-04-04 12:30:00,73.3,67.5,30.00,SW,236,0.0,7.0,82,0.00,,---,0.29,VWS V14.00,2013-04-04 16:30:00,
2013-04-04 12:32:00,73.3,67.5,30.00,WSW,244,0.0,0.0,82,0.00,,---,0.29,VWS V14.00,2013-04-04 16:32:00,
2013-04-04 12:38:00,73.3,67.5,30.00,WSW,250,0.0,4.0,82,0.00,,---,0.29,VWS V14.00,2013-04-04 16:38:00,
2013-04-04 12:43:00,73.3,67.8,30.00,WSW,240,0.0,4.0,83,0.00,,---,0.29,VWS V14.00,2013-04-04 16:43:00,
2013-04-04 12:48:00,73.3,67.8,29.99,SSE,153,0.0,4.0,83,0.00,,---,0.29,VWS V14.00,2013-04-04 16:48:00,
2013-04-04 12:54:00,73.1,67.6,29.99,WSW,241,0.0,4.0,83,0.00,,---,0.29,VWS V14.00,2013-04-04 16:54:00,
2013-04-04 12:59:00,73.1,67.6,29.99,SW,236,0.0,4.0,83,0.00,,---,0.29,VWS V14.00,2013-04-04 16:59:00,
2013-04-04 13:00:00,73.1,67.6,30.00,SW,236,0.0,4.0,83,0.00,,---,0.29,VWS V14.00,2013-04-04 17:00:00,
2013-04-04 13:04:00,73.1,67.6,30.00,WSW,242,3.0,4.0,83,0.00,,---,0.29,VWS V14.00,2013-04-04 17:04:00,
2013-04-04 13:10:00,73.0,67.5,30.00,SW,219,0.0,4.0,83,0.00,,---,0.29,VWS V14.00,2013-04-04 17:10:00,
2013-04-04 13:15:00,72.8,67.3,30.00,SW,222,0.0,6.0,83,0.00,,---,0.29,VWS V14.00,2013-04-04 17:15:00,
2013-04-04 13:20:00,72.7,67.2,30.00,SW,230,0.0,6.0,83,0.00,,---,0.29,VWS V14.00,2013-04-04 17:20:00,
2013-04-04 13:25:00,72.6,67.5,29.99,SSW,200,0.0,6.0,84,0.00,,---,0.29,VWS V14.00,2013-04-04 17:25:00,
2013-04-04 13:30:00,72.5,67.4,30.00,SW,214,1.0,10.0,84,0.00,,---,0.29,VWS V14.00,2013-04-04 17:30:00,
2013-04-04 13:31:00,72.5,67.4,30.00,South,171,4.0,10.0,84,0.00,,---,0.29,VWS V14.00,2013-04-04 17:31:00,
2013-04-04 13:36:00,72.4,67.3,30.00,SW,218,2.0,8.0,84,0.00,,---,0.29,VWS V14.00,2013-04-04 17:36:00,
2013-04-04 13:41:00,72.3,67.5,30.00,South,172,0.0,9.0,85,0.00,,---,0.29,VWS V14.00,2013-04-04 17:41:00,
2013-04-04 13:47:00,72.0,67.6,30.01,South,179,3.0,9.0,86,0.00,,---,0.29,VWS V14.00,2013-04-04 17:47:00,
2013-04-04 13:52:00,71.5,67.4,30.00,SSW,208,2.0,16.0,87,0.00,,---,0.29,VWS V14.00,2013-04-04 17:52:00,
2013-04-04 13:58:00,71.3,67.6,30.00,SSW,194,0.0,16.0,88,0.00,,---,0.29,VWS V14.00,2013-04-04 17:58:00,
2013-04-04 14:00:00,71.1,67.7,30.01,SSW,205,3.0,16.0,89,0.00,,---,0.29,VWS V14.00,2013-04-04 18:00:00,
2013-04-04 14:03:00,71.0,67.6,30.00,SW,223,1.0,4.0,89,0.00,,---,0.29,VWS V14.00,2013-04-04 18:03:00,
2013-04-04 14:09:00,70.7,67.6,30.00,SW,236,0.0,10.0,90,0.01,,---,0.30,VWS V14.00,2013-04-04 18:09:00,
2013-04-04 14:14:00,70.5,67.8,29.99,SSW,209,0.0,11.0,91,0.02,,---,0.31,VWS V14.00,2013-04-04 18:14:00,
2013-04-04 14:20:00,70.2,67.4,29.99,SSW,194,0.0,12.0,91,0.03,,---,0.32,VWS V14.00,2013-04-04 18:20:00,
2013-04-04 14:25:00,70.1,67.7,29.98,SW,219,0.0,14.0,92,0.03,,---,0.32,VWS V14.00,2013-04-04 18:25:00,
2013-04-04 14:30:00,69.9,67.5,29.98,SW,236,0.0,14.0,92,0.04,,---,0.33,VWS V14.00,2013-04-04 18:30:00,
2013-04-04 14:36:00,69.8,67.7,29.97,SW,233,0.0,11.0,93,0.05,,---,0.34,VWS V14.00,2013-04-04 18:36:00,
2013-04-04 14:41:00,69.7,67.6,29.96,SW,218,2.0,11.0,93,0.05,,---,0.34,VWS V14.00,2013-04-04 18:41:00,
2013-04-04 14:47:00,69.5,67.4,29.96,South,180,0.0,15.0,93,0.06,,---,0.35,VWS V14.00,2013-04-04 18:47:00,
2013-04-04 14:52:00,69.4,67.3,29.98,SW,226,0.0,16.0,93,0.06,,---,0.35,VWS V14.00,2013-04-04 18:52:00,
2013-04-04 14:57:00,69.4,67.3,29.99,SW,217,0.0,16.0,93,0.07,,---,0.36,VWS V14.00,2013-04-04 18:57:00,
2013-04-04 15:00:00,69.2,67.1,29.98,SSW,205,0.0,16.0,93,0.07,,---,0.36,VWS V14.00,2013-04-04 19:00:00,
2013-04-04 15:02:00,69.2,67.1,29.98,SW,215,0.0,6.0,93,0.07,,---,0.36,VWS V14.00,2013-04-04 19:02:00,
2013-04-04 15:07:00,69.1,67.0,29.97,SW,235,0.0,7.0,93,0.08,,---,0.37,VWS V14.00,2013-04-04 19:07:00,
2013-04-04 15:12:00,68.9,66.8,29.96,WSW,238,6.0,14.0,93,0.08,,---,0.37,VWS V14.00,2013-04-04 19:12:00,
2013-04-04 15:18:00,68.8,66.7,29.96,SSW,209,7.0,14.0,93,0.08,,---,0.37,VWS V14.00,2013-04-04 19:18:00,
2013-04-04 15:23:00,68.6,66.5,29.95,WSW,237,1.0,14.0,93,0.09,,---,0.38,VWS V14.00,2013-04-04 19:23:00,
2013-04-04 15:28:00,68.4,66.3,29.95,SW,217,0.0,14.0,93,0.09,,---,0.38,VWS V14.00,2013-04-04 19:28:00,
2013-04-04 15:30:00,68.4,66.3,29.95,SW,229,0.0,14.0,93,0.09,,---,0.38,VWS V14.00,2013-04-04 19:30:00,
2013-04-04 15:33:00,68.3,66.2,29.95,SW,230,0.0,6.0,93,0.05,,---,0.38,VWS V14.00,2013-04-04 19:33:00,
2013-04-04 15:39:00,68.3,65.9,29.94,SSW,198,0.0,6.0,92,0.05,,---,0.38,VWS V14.00,2013-04-04 19:39:00,
2013-04-04 15:44:00,68.1,65.7,29.94,SW,217,0.0,9.0,92,0.05,,---,0.38,VWS V14.00,2013-04-04 19:44:00,
2013-04-04 15:49:00,68.0,65.6,29.94,WSW,237,2.0,15.0,92,0.05,,---,0.38,VWS V14.00,2013-04-04 19:49:00,
2013-04-04 15:54:00,68.0,65.6,29.94,SW,215,0.0,15.0,92,0.05,,---,0.38,VWS V14.00,2013-04-04 19:54:00,
2013-04-04 15:59:00,67.9,65.2,29.94,SSW,211,0.0,15.0,91,0.05,,---,0.38,VWS V14.00,2013-04-04 19:59:00,
2013-04-04 16:00:00,67.9,65.2,29.94,SW,233,0.0,15.0,91,0.05,,---,0.38,VWS V14.00,2013-04-04 20:00:00,
2013-04-04 16:04:00,67.8,65.1,29.93,SSW,213,0.0,6.0,91,0.03,,---,0.39,VWS V14.00,2013-04-04 20:04:00,
2013-04-04 16:10:00,67.7,65.3,29.89,South,177,0.0,6.0,92,0.03,,---,0.39,VWS V14.00,2013-04-04 20:10:00,
2013-04-04 16:15:00,67.5,64.8,29.86,SE,144,0.0,6.0,91,0.03,,---,0.39,VWS V14.00,2013-04-04 20:15:00,
2013-04-04 16:21:00,67.4,64.7,29.85,SSE,165,3.0,11.0,91,0.03,,---,0.39,VWS V14.00,2013-04-04 20:21:00,
2013-04-04 16:27:00,67.3,64.6,29.88,SSW,205,2.0,11.0,91,0.03,,---,0.39,VWS V14.00,2013-04-04 20:27:00,
2013-04-04 16:30:00,67.5,64.5,29.87,SSW,196,1.0,11.0,90,0.03,,---,0.39,VWS V14.00,2013-04-04 20:30:00,
2013-04-04 16:32:00,67.5,64.5,29.87,South,173,2.0,5.0,90,0.01,,---,0.39,VWS V14.00,2013-04-04 20:32:00,
2013-04-04 16:37:00,67.7,64.0,29.86,South,180,0.0,7.0,88,0.01,,---,0.39,VWS V14.00,2013-04-04 20:37:00,
2013-04-04 16:42:00,68.0,64.3,29.88,South,191,0.0,7.0,88,0.01,,---,0.39,VWS V14.00,2013-04-04 20:42:00,
2013-04-04 16:47:00,68.3,64.3,29.88,SSE,150,0.0,7.0,87,0.01,,---,0.39,VWS V14.00,2013-04-04 20:47:00,
2013-04-04 16:52:00,68.4,64.1,29.89,SSW,207,0.0,8.0,86,0.01,,---,0.39,VWS V14.00,2013-04-04 20:52:00,
2013-04-04 16:58:00,68.6,64.2,29.89,WSW,240,0.0,8.0,86,0.01,,---,0.39,VWS V14.00,2013-04-04 20:58:00,
2013-04-04 17:00:00,68.6,64.2,29.89,SW,215,0.0,8.0,86,0.01,,---,0.39,VWS V14.00,2013-04-04 21:00:00,
2013-04-04 17:03:00,68.6,63.9,29.89,SSE,155,0.0,5.0,85,0.01,,---,0.39,VWS V14.00,2013-04-04 21:03:00,
2013-04-04 17:08:00,68.6,63.9,29.89,SSW,202,0.0,5.0,85,0.01,,---,0.39,VWS V14.00,2013-04-04 21:08:00,
2013-04-04 17:14:00,68.6,64.2,29.88,SSW,198,0.0,5.0,86,0.01,,---,0.39,VWS V14.00,2013-04-04 21:14:00,
2013-04-04 17:19:00,68.5,64.5,29.89,SSW,198,0.0,5.0,87,0.01,,---,0.39,VWS V14.00,2013-04-04 21:19:00,
2013-04-04 17:24:00,68.8,64.8,29.90,SSW,198,0.0,5.0,87,0.01,,---,0.39,VWS V14.00,2013-04-04 21:24:00,
2013-04-04 17:29:00,69.3,65.3,29.90,WSW,249,0.0,6.0,87,0.01,,---,0.39,VWS V14.00,2013-04-04 21:29:00,
2013-04-04 17:30:00,69.5,65.5,29.90,WSW,246,2.0,6.0,87,0.01,,---,0.39,VWS V14.00,2013-04-04 21:30:00,
2013-04-04 17:35:00,69.7,65.0,29.89,SW,225,0.0,5.0,85,0.00,,---,0.39,VWS V14.00,2013-04-04 21:35:00,
2013-04-04 17:40:00,70.0,64.9,29.89,South,184,2.0,5.0,84,0.00,,---,0.39,VWS V14.00,2013-04-04 21:40:00,
2013-04-04 17:45:00,70.3,65.2,29.89,SW,214,0.0,5.0,84,0.00,,---,0.39,VWS V14.00,2013-04-04 21:45:00,
2013-04-04 17:50:00,70.6,65.5,29.88,WSW,240,0.0,5.0,84,0.00,,---,0.39,VWS V14.00,2013-04-04 21:50:00,
2013-04-04 17:56:00,70.9,65.5,29.89,WSW,248,0.0,5.0,83,0.00,,---,0.39,VWS V14.00,2013-04-04 21:56:00,
2013-04-04 18:00:00,71.3,65.5,29.89,SW,234,0.0,5.0,82,0.00,,---,0.39,VWS V14.00,2013-04-04 22:00:00,
2013-04-04 18:01:00,71.3,65.5,29.89,SW,226,0.0,5.0,82,0.00,,---,0.39,VWS V14.00,2013-04-04 22:01:00,
2013-04-04 18:06:00,71.5,65.7,29.88,WSW,253,0.0,0.0,82,0.00,,---,0.39,VWS V14.00,2013-04-04 22:06:00,
2013-04-04 18:12:00,71.6,65.5,29.89,SW,232,0.0,0.0,81,0.00,,---,0.39,VWS V14.00,2013-04-04 22:12:00,
2013-04-04 18:17:00,71.5,65.7,29.90,SW,221,0.0,3.0,82,0.00,,---,0.39,VWS V14.00,2013-04-04 22:17:00,
2013-04-04 18:23:00,71.2,65.1,29.90,SSW,211,0.0,5.0,81,0.00,,---,0.39,VWS V14.00,2013-04-04 22:23:00,
2013-04-04 18:28:00,71.0,64.9,29.90,WSW,237,0.0,5.0,81,0.00,,---,0.39,VWS V14.00,2013-04-04 22:28:00,
2013-04-04 18:30:00,70.9,65.1,29.89,WSW,237,0.0,5.0,82,0.00,,---,0.39,VWS V14.00,2013-04-04 22:30:00,
2013-04-04 18:33:00,70.9,65.5,29.89,WSW,242,0.0,1.0,83,0.00,,---,0.39,VWS V14.00,2013-04-04 22:33:00,
2013-04-04 18:38:00,70.7,65.3,29.89,SW,219,0.0,1.0,83,0.00,,---,0.39,VWS V14.00,2013-04-04 22:38:00,
2013-04-04 18:43:00,70.6,65.2,29.89,WSW,249,0.0,1.0,83,0.00,,---,0.39,VWS V14.00,2013-04-04 22:43:00,
2013-04-04 18:49:00,70.4,65.0,29.89,WSW,249,0.0,1.0,83,0.00,,---,0.39,VWS V14.00,2013-04-04 22:49:00,
2013-04-04 18:54:00,70.4,65.0,29.88,WSW,250,0.0,1.0,83,0.00,,---,0.39,VWS V14.00,2013-04-04 22:54:00,
2013-04-04 18:59:00,70.3,65.2,29.88,WSW,250,0.0,1.0,84,0.00,,---,0.39,VWS V14.00,2013-04-04 22:59:00,
2013-04-04 19:00:00,70.2,65.1,29.88,WSW,250,0.0,1.0,84,0.00,,---,0.39,VWS V14.00,2013-04-04 23:00:00,
2013-04-04 19:04:00,70.2,65.5,29.88,WSW,250,0.0,0.0,85,0.00,,---,0.39,VWS V14.00,2013-04-04 23:04:00,
2013-04-04 19:10:00,70.0,65.6,29.88,WSW,250,0.0,0.0,86,0.00,,---,0.39,VWS V14.00,2013-04-04 23:10:00,
2013-04-04 19:15:00,69.7,65.3,29.88,WSW,250,0.0,0.0,86,0.00,,---,0.39,VWS V14.00,2013-04-04 23:15:00,
2013-04-04 19:21:00,69.5,65.1,29.87,WSW,250,0.0,0.0,86,0.00,,---,0.39,VWS V14.00,2013-04-04 23:21:00,
2013-04-04 19:26:00,69.1,65.1,29.87,WSW,249,0.0,0.0,87,0.00,,---,0.39,VWS V14.00,2013-04-04 23:26:00,
2013-04-04 19:30:00,68.9,64.9,29.88,WSW,249,0.0,0.0,87,0.00,,---,0.39,VWS V14.00,2013-04-04 23:30:00,
2013-04-04 19:31:00,68.9,64.9,29.88,WSW,249,0.0,0.0,87,0.00,,---,0.39,VWS V14.00,2013-04-04 23:31:00,
2013-04-04 19:36:00,68.7,65.0,29.87,WSW,250,0.0,0.0,88,0.00,,---,0.39,VWS V14.00,2013-04-04 23:36:00,
2013-04-04 19:42:00,68.5,64.8,29.87,WSW,250,0.0,0.0,88,0.00,,---,0.39,VWS V14.00,2013-04-04 23:42:00,
2013-04-04 19:47:00,68.3,64.9,29.87,WSW,250,0.0,0.0,89,0.00,,---,0.39,VWS V14.00,2013-04-04 23:47:00,
2013-04-04 19:52:00,68.0,64.6,29.87,WSW,249,0.0,0.0,89,0.00,,---,0.39,VWS V14.00,2013-04-04 23:52:00,
2013-04-04 19:57:00,67.8,64.8,29.87,WSW,250,0.0,0.0,90,0.00,,---,0.39,VWS V14.00,2013-04-04 23:57:00,
2013-04-04 20:00:00,67.7,64.7,29.87,WSW,250,0.0,0.0,90,0.00,,---,0.39,VWS V14.00,2013-04-05 00:00:00,
2013-04-04 20:03:00,67.6,64.6,29.87,WSW,249,0.0,0.0,90,0.00,,---,0.39,VWS V14.00,2013-04-05 00:03:00,
2013-04-04 20:08:00,67.4,64.4,29.88,WSW,250,0.0,0.0,90,0.00,,---,0.39,VWS V14.00,2013-04-05 00:08:00,
2013-04-04 20:13:00,67.3,64.3,29.89,WSW,249,0.0,0.0,90,0.00,,---,0.39,VWS V14.00,2013-04-05 00:13:00,
2013-04-04 20:19:00,67.2,64.5,29.90,WSW,250,0.0,0.0,91,0.00,,---,0.39,VWS V14.00,2013-04-05 00:19:00,
2013-04-04 20:24:00,67.0,64.3,29.90,WSW,250,0.0,0.0,91,0.00,,---,0.39,VWS V14.00,2013-04-05 00:24:00,
2013-04-04 20:29:00,67.0,64.3,29.90,WSW,250,0.0,0.0,91,0.00,,---,0.39,VWS V14.00,2013-04-05 00:29:00,
2013-04-04 20:30:00,66.9,64.2,29.90,WSW,250,0.0,0.0,91,0.00,,---,0.39,VWS V14.00,2013-04-05 00:30:00,
2013-04-04 20:35:00,66.9,64.2,29.91,WSW,249,0.0,0.0,91,0.00,,---,0.39,VWS V14.00,2013-04-05 00:35:00,
2013-04-04 20:40:00,66.8,64.4,29.91,WSW,250,0.0,0.0,92,0.00,,---,0.39,VWS V14.00,2013-04-05 00:40:00,
2013-04-04 20:45:00,66.7,64.3,29.91,WSW,250,0.0,0.0,92,0.00,,---,0.39,VWS V14.00,2013-04-05 00:45:00,
2013-04-04 20:51:00,66.7,64.3,29.91,WSW,249,0.0,0.0,92,0.00,,---,0.39,VWS V14.00,2013-04-05 00:51:00,
2013-04-04 20:57:00,66.6,64.2,29.91,WSW,250,0.0,0.0,92,0.00,,---,0.39,VWS V14.00,2013-04-05 00:57:00,
2013-04-04 21:00:00,66.5,64.1,29.91,WSW,250,0.0,0.0,92,0.00,,---,0.39,VWS V14.00,2013-04-05 01:00:00,
2013-04-04 21:02:00,66.5,64.1,29.91,WSW,250,0.0,0.0,92,0.00,,---,0.39,VWS V14.00,2013-04-05 01:02:00,
2013-04-04 21:07:00,66.4,64.0,29.91,WSW,250,0.0,0.0,92,0.00,,---,0.39,VWS V14.00,2013-04-05 01:07:00,
2013-04-04 21:13:00,66.2,63.8,29.91,WSW,249,0.0,0.0,92,0.00,,---,0.39,VWS V14.00,2013-04-05 01:13:00,
2013-04-04 21:18:00,66.1,63.7,29.92,WSW,249,0.0,0.0,92,0.00,,---,0.39,VWS V14.00,2013-04-05 01:18:00,
2013-04-04 21:23:00,66.0,63.9,29.92,WSW,250,0.0,0.0,93,0.00,,---,0.39,VWS V14.00,2013-04-05 01:23:00,
2013-04-04 21:29:00,65.9,63.8,29.93,WSW,250,0.0,0.0,93,0.00,,---,0.39,VWS V14.00,2013-04-05 01:29:00,
2013-04-04 21:30:00,65.9,63.8,29.93,WSW,250,0.0,0.0,93,0.00,,---,0.39,VWS V14.00,2013-04-05 01:30:00,
2013-04-04 21:34:00,65.9,63.8,29.93,WSW,250,0.0,0.0,93,0.00,,---,0.39,VWS V14.00,2013-04-05 01:34:00,
2013-04-04 21:40:00,65.9,63.8,29.93,WSW,250,0.0,0.0,93,0.00,,---,0.39,VWS V14.00,2013-04-05 01:40:00,
2013-04-04 21:45:00,65.9,63.8,29.93,WSW,250,0.0,0.0,93,0.00,,---,0.39,VWS V14.00,2013-04-05 01:45:00,
2013-04-04 21:50:00,65.8,63.7,29.93,WSW,249,0.0,0.0,93,0.00,,---,0.39,VWS V14.00,2013-04-05 01:50:00,
2013-04-04 21:55:00,65.8,63.7,29.93,WSW,249,0.0,0.0,93,0.00,,---,0.39,VWS V14.00,2013-04-05 01:55:00,
2013-04-04 22:00:00,65.8,63.7,29.94,WSW,250,0.0,0.0,93,0.00,,---,0.39,VWS V14.00,2013-04-05 02:00:00,
2013-04-04 22:01:00,65.8,63.7,29.94,WSW,250,0.0,0.0,93,0.00,,---,0.39,VWS V14.00,2013-04-05 02:01:00,
2013-04-04 22:06:00,66.0,64.2,29.94,WSW,249,0.0,0.0,94,0.00,,---,0.39,VWS V14.00,2013-04-05 02:06:00,
2013-04-04 22:12:00,66.1,64.3,29.94,WSW,250,0.0,0.0,94,0.00,,---,0.39,VWS V14.00,2013-04-05 02:12:00,
2013-04-04 22:17:00,66.1,64.3,29.94,WSW,249,0.0,0.0,94,0.00,,---,0.39,VWS V14.00,2013-04-05 02:17:00,
2013-04-04 22:22:00,66.1,64.3,29.94,WSW,250,0.0,0.0,94,0.00,,---,0.39,VWS V14.00,2013-04-05 02:22:00,
2013-04-04 22:28:00,66.2,64.4,29.94,WSW,250,0.0,0.0,94,0.00,,---,0.39,VWS V14.00,2013-04-05 02:28:00,
2013-04-04 22:30:00,66.3,64.5,29.94,WSW,249,0.0,0.0,94,0.00,,---,0.39,VWS V14.00,2013-04-05 02:30:00,
2013-04-04 22:33:00,66.4,64.6,29.94,WSW,250,0.0,0.0,94,0.00,,---,0.39,VWS V14.00,2013-04-05 02:33:00,
2013-04-04 22:38:00,66.4,64.6,29.94,WSW,249,0.0,0.0,94,0.00,,---,0.39,VWS V14.00,2013-04-05 02:38:00,
2013-04-04 22:44:00,66.5,64.7,29.93,WSW,249,0.0,0.0,94,0.00,,---,0.39,VWS V14.00,2013-04-05 02:44:00,
2013-04-04 22:49:00,66.5,64.7,29.92,WSW,250,0.0,0.0,94,0.00,,---,0.39,VWS V14.00,2013-04-05 02:49:00,
2013-04-04 22:55:00,66.5,64.7,29.92,WSW,250,0.0,0.0,94,0.00,,---,0.39,VWS V14.00,2013-04-05 02:55:00,
2013-04-04 23:00:00,66.3,64.5,29.92,WSW,250,0.0,0.0,94,0.00,,---,0.39,VWS V14.00,2013-04-05 03:00:00,
2013-04-04 23:05:00,66.4,64.6,29.92,WSW,250,0.0,0.0,94,0.00,,---,0.39,VWS V14.00,2013-04-05 03:05:00,
2013-04-04 23:10:00,66.4,64.6,29.92,WSW,250,0.0,0.0,94,0.00,,---,0.39,VWS V14.00,2013-04-05 03:10:00,
2013-04-04 23:16:00,66.4,64.6,29.91,WSW,250,0.0,0.0,94,0.00,,---,0.39,VWS V14.00,2013-04-05 03:16:00,
2013-04-04 23:21:00,66.4,64.6,29.91,WSW,249,0.0,0.0,94,0.00,,---,0.39,VWS V14.00,2013-04-05 03:21:00,
2013-04-04 23:26:00,66.4,64.6,29.91,WSW,250,0.0,0.0,94,0.00,,---,0.39,VWS V14.00,2013-04-05 03:26:00,
2013-04-04 23:30:00,66.3,64.5,29.92,WSW,249,0.0,0.0,94,0.00,,---,0.39,VWS V14.00,2013-04-05 03:30:00,
2013-04-04 23:32:00,66.3,64.5,29.92,WSW,249,0.0,0.0,94,0.00,,---,0.39,VWS V14.00,2013-04-05 03:32:00,
2013-04-04 23:37:00,66.4,64.6,29.92,WSW,249,0.0,0.0,94,0.00,,---,0.39,VWS V14.00,2013-04-05 03:37:00,
2013-04-04 23:42:00,66.4,64.6,29.92,WSW,250,0.0,1.0,94,0.00,,---,0.39,VWS V14.00,2013-04-05 03:42:00,
2013-04-04 23:48:00,66.5,64.4,29.93,WSW,246,0.0,1.0,93,0.00,,---,0.39,VWS V14.00,2013-04-05 03:48:00,
2013-04-04 23:53:00,66.7,64.3,29.93,WSW,245,0.0,1.0,92,0.00,,---,0.39,VWS V14.00,2013-04-05 03:53:00,
2013-04-04 23:58:00,66.9,64.2,29.92,SW,219,0.0,1.0,91,0.00,,---,0.39,VWS V14.00,2013-04-05 03:58:00,